createdAt,value
2022-11-09T00:00:43.544Z,94503.00
2022-11-09T00:03:22.327Z,94508.25
2022-11-09T00:06:16.677Z,94508.97
2022-11-09T00:08:51.611Z,94502.97
2022-11-09T00:11:25.235Z,94512.72
2022-11-09T00:13:52.604Z,94501.56
2022-11-09T00:16:29.157Z,94497.50
2022-11-09T00:19:06.328Z,94501.75
2022-11-09T00:21:39.609Z,94494.41
2022-11-09T00:24:16.345Z,94493.63
2022-11-09T00:26:45.394Z,94500.03
2022-11-09T00:29:23.500Z,94490.03
2022-11-09T00:32:04.276Z,94494.56
2022-11-09T00:34:42.948Z,94487.91
2022-11-09T00:37:18.661Z,94483.63
2022-11-09T00:39:54.181Z,94483.81
2022-11-09T00:42:27.081Z,94481.66
2022-11-09T00:44:54.444Z,94486.91
2022-11-09T00:47:32.842Z,94486.63
2022-11-09T00:50:03.821Z,94477.81
2022-11-09T00:52:41.900Z,94484.94
2022-11-09T00:55:10.198Z,94483.25
2022-11-09T00:57:40.518Z,94483.25
2022-11-09T01:00:08.658Z,94481.09
2022-11-09T01:02:43.186Z,94483.03
2022-11-09T01:05:34.861Z,94488.72
2022-11-09T01:08:08.816Z,94491.06
2022-11-09T01:10:55.687Z,94491.50
2022-11-09T01:13:31.593Z,94491.72
2022-11-09T01:16:05.083Z,94495.03
2022-11-09T01:18:50.091Z,94480.50
2022-11-09T01:21:26.036Z,94505.72
2022-11-09T01:24:02.718Z,94491.41
2022-11-09T01:26:35.776Z,94484.75
2022-11-09T01:29:11.287Z,94485.22
2022-11-09T01:31:48.112Z,94494.72
2022-11-09T01:34:23.230Z,94488.50
2022-11-09T01:36:59.690Z,94487.81
2022-11-09T01:39:44.464Z,94487.28
2022-11-09T01:42:17.152Z,94481.81
2022-11-09T01:45:05.299Z,94486.31
2022-11-09T01:47:37.664Z,94495.06
2022-11-09T01:50:16.176Z,94484.34
2022-11-09T01:52:48.158Z,94482.22
2022-11-09T01:55:32.492Z,94485.75
2022-11-09T01:58:36.932Z,94486.94
2022-11-09T02:01:14.473Z,94482.88
2022-11-09T02:03:56.720Z,94485.97
2022-11-09T02:06:29.253Z,94489.00
2022-11-09T02:09:20.011Z,94480.91
2022-11-09T02:11:51.563Z,94478.31
2022-11-09T02:14:23.116Z,94478.75
2022-11-09T02:16:59.167Z,94477.34
2022-11-09T02:19:31.010Z,94477.09
2022-11-09T02:22:06.884Z,94475.19
2022-11-09T02:24:43.235Z,94469.72
2022-11-09T02:27:20.230Z,94473.94
2022-11-09T02:29:55.162Z,94463.50
2022-11-09T02:32:37.368Z,94468.47
2022-11-09T02:35:16.294Z,94462.78
2022-11-09T02:37:55.027Z,94460.41
2022-11-09T02:40:35.356Z,94455.91
2022-11-09T02:43:20.701Z,94451.59
2022-11-09T02:45:53.946Z,94446.84
2022-11-09T02:48:46.698Z,94452.25
2022-11-09T02:51:34.020Z,94456.28
2022-11-09T02:54:07.305Z,94443.69
2022-11-09T02:56:49.591Z,94441.09
2022-11-09T02:59:33.768Z,94443.00
2022-11-09T03:02:04.287Z,94444.16
2022-11-09T03:04:31.542Z,94437.28
2022-11-09T03:07:02.020Z,94442.50
2022-11-09T03:09:43.021Z,94442.50
2022-11-09T03:12:28.842Z,94442.50
2022-11-09T03:15:12.775Z,94441.03
2022-11-09T03:17:41.490Z,94442.94
2022-11-09T03:20:17.192Z,94440.06
2022-11-09T03:23:05.777Z,94437.19
2022-11-09T03:25:41.621Z,94439.34
2022-11-09T03:28:23.015Z,94441.69
2022-11-09T03:30:50.665Z,94449.06
2022-11-09T03:33:18.817Z,94446.19
2022-11-09T03:35:50.533Z,94439.78
2022-11-09T03:38:30.051Z,94440.50
2022-11-09T03:41:05.495Z,94440.25
2022-11-09T03:43:32.187Z,94432.41
2022-11-09T03:45:58.904Z,94422.25
2022-11-09T03:48:25.631Z,94424.84
2022-11-09T03:50:55.336Z,94417.03
2022-11-09T03:53:22.236Z,94411.81
2022-11-09T03:55:49.094Z,94422.97
2022-11-09T03:58:18.669Z,94419.19
2022-11-09T04:00:45.410Z,94431.53
2022-11-09T04:03:12.063Z,94433.69
2022-11-09T04:05:38.953Z,94425.13
2022-11-09T04:08:05.645Z,94432.22
2022-11-09T04:10:32.262Z,94424.84
2022-11-09T04:12:59.043Z,94420.63
2022-11-09T04:15:25.803Z,94419.91
2022-11-09T04:17:59.507Z,94415.88
2022-11-09T04:20:29.568Z,94425.13
2022-11-09T04:23:05.033Z,94427.72
2022-11-09T04:25:34.680Z,94428.91
2022-11-09T04:28:02.502Z,94432.94
2022-11-09T04:30:31.780Z,94434.41
2022-11-09T04:32:59.606Z,94432.50
2022-11-09T04:35:28.232Z,94419.44
2022-11-09T04:37:56.567Z,94428.69
2022-11-09T04:40:24.595Z,94424.22
2022-11-09T04:42:52.151Z,94433.91
2022-11-09T04:45:19.897Z,94431.78
2022-11-09T04:47:46.796Z,94438.44
2022-11-09T04:50:13.764Z,94437.72
2022-11-09T04:52:40.711Z,94443.66
2022-11-09T04:55:08.125Z,94444.13
2022-11-09T04:57:34.994Z,94446.00
2022-11-09T05:00:02.233Z,94445.72
2022-11-09T05:02:28.872Z,94443.59
2022-11-09T05:04:55.610Z,94446.19
2022-11-09T05:07:22.232Z,94451.19
2022-11-09T05:09:48.849Z,94451.63
2022-11-09T05:12:15.672Z,94457.28
2022-11-09T05:14:42.300Z,94460.38
2022-11-09T05:17:08.956Z,94461.09
2022-11-09T05:19:36.456Z,94465.59
2022-11-09T05:22:23.294Z,94475.75
2022-11-09T05:24:51.952Z,94485.22
2022-11-09T05:27:18.742Z,94484.75
2022-11-09T05:29:45.405Z,94488.53
2022-11-09T05:32:12.272Z,94492.28
2022-11-09T05:34:38.913Z,94493.50
2022-11-09T05:37:05.617Z,94506.56
2022-11-09T05:39:32.306Z,94508.44
2022-11-09T05:41:58.972Z,94510.78
2022-11-09T05:44:25.805Z,94520.03
2022-11-09T05:46:52.519Z,94529.75
2022-11-09T05:49:19.145Z,94539.00
2022-11-09T05:51:45.952Z,94534.97
2022-11-09T05:54:12.789Z,94533.78
2022-11-09T05:56:39.404Z,94531.94
2022-11-09T05:59:06.037Z,94534.78
2022-11-09T06:01:32.645Z,94545.72
2022-11-09T06:03:59.388Z,94544.75
2022-11-09T06:06:26.158Z,94547.19
2022-11-09T06:08:52.877Z,94535.56
2022-11-09T06:11:23.898Z,94538.91
2022-11-09T06:13:52.257Z,94546.28
2022-11-09T06:16:18.980Z,94541.06
2022-11-09T06:18:45.982Z,94551.72
2022-11-09T06:21:12.809Z,94560.75
2022-11-09T06:23:39.650Z,94559.56
2022-11-09T06:26:09.769Z,94561.47
2022-11-09T06:28:38.302Z,94568.97
2022-11-09T06:31:07.072Z,94567.75
2022-11-09T06:33:35.544Z,94568.63
2022-11-09T06:36:03.186Z,94574.13
2022-11-09T06:38:30.333Z,94581.97
2022-11-09T06:40:59.127Z,94582.94
2022-11-09T06:43:26.854Z,94594.81
2022-11-09T06:45:54.313Z,94591.75
2022-11-09T06:48:22.050Z,94595.78
2022-11-09T06:50:48.930Z,94601.72
2022-11-09T06:53:17.659Z,94596.78
2022-11-09T06:55:50.284Z,94591.09
2022-11-09T06:58:18.517Z,94595.63
2022-11-09T07:00:45.759Z,94597.03
2022-11-09T07:03:17.176Z,94595.16
2022-11-09T07:05:44.364Z,94599.22
2022-11-09T07:08:11.851Z,94588.78
2022-11-09T07:10:42.011Z,94605.84
2022-11-09T07:13:09.145Z,94600.88
2022-11-09T07:15:37.391Z,94597.56
2022-11-09T07:18:06.959Z,94597.81
2022-11-09T07:20:34.135Z,94602.56
2022-11-09T07:23:00.799Z,94596.19
2022-11-09T07:25:27.637Z,94604.28
2022-11-09T07:27:54.364Z,94604.28
2022-11-09T07:30:21.001Z,94601.94
2022-11-09T07:33:08.794Z,94602.19
2022-11-09T07:35:34.606Z,94603.63
2022-11-09T07:38:01.939Z,94602.00
2022-11-09T07:40:29.479Z,94606.78
2022-11-09T07:43:04.187Z,94607.75
2022-11-09T07:45:32.640Z,94611.31
2022-11-09T07:48:01.261Z,94609.69
2022-11-09T07:50:29.679Z,94606.63
2022-11-09T07:52:57.261Z,94606.91
2022-11-09T07:55:24.900Z,94610.03
2022-11-09T07:58:01.960Z,94608.66
2022-11-09T08:00:30.547Z,94611.81
2022-11-09T08:02:57.433Z,94615.63
2022-11-09T08:05:24.813Z,94614.28
2022-11-09T08:07:59.234Z,94616.47
2022-11-09T08:10:27.497Z,94620.28
2022-11-09T08:12:56.249Z,94625.41
2022-11-09T08:15:23.397Z,94617.34
2022-11-09T08:17:50.233Z,94614.06
2022-11-09T08:20:17.352Z,94630.53
2022-11-09T08:22:45.532Z,94622.69
2022-11-09T08:25:13.083Z,94620.88
2022-11-09T08:27:42.526Z,94624.25
2022-11-09T08:30:21.195Z,94621.03
2022-11-09T08:32:49.225Z,94629.63
2022-11-09T08:35:21.186Z,94618.78
2022-11-09T08:37:49.559Z,94618.16
2022-11-09T08:40:18.184Z,94631.06
2022-11-09T08:42:45.751Z,94630.84
2022-11-09T08:45:13.814Z,94629.84
2022-11-09T08:47:40.859Z,94635.34
2022-11-09T08:50:08.865Z,94636.00
2022-11-09T08:52:35.759Z,94636.75
2022-11-09T08:55:02.783Z,94634.56
2022-11-09T08:57:30.088Z,94637.22
2022-11-09T08:59:56.768Z,94635.75
2022-11-09T09:02:26.623Z,94636.97
2022-11-09T09:04:53.461Z,94631.50
2022-11-09T09:07:20.198Z,94634.34
2022-11-09T09:09:47.128Z,94622.94
2022-11-09T09:12:13.793Z,94624.13
2022-11-09T09:14:40.482Z,94628.91
2022-11-09T09:17:07.135Z,94627.25
2022-11-09T09:19:34.893Z,94622.00
2022-11-09T09:22:01.784Z,94633.94
2022-11-09T09:24:28.683Z,94632.47
2022-11-09T09:26:55.506Z,94634.88
2022-11-09T09:29:22.226Z,94635.81
2022-11-09T09:31:48.976Z,94633.66
2022-11-09T09:34:16.112Z,94642.97
2022-11-09T09:36:47.616Z,94635.06
2022-11-09T09:39:15.256Z,94640.03
2022-11-09T09:41:51.128Z,94641.22
2022-11-09T09:44:32.900Z,94647.88
2022-11-09T09:47:15.531Z,94650.22
2022-11-09T09:49:54.869Z,94646.84
2022-11-09T09:52:27.259Z,94641.56
2022-11-09T09:55:20.389Z,94653.72
2022-11-09T09:57:52.815Z,94651.81
2022-11-09T10:00:25.730Z,94646.94
2022-11-09T10:02:53.569Z,94644.50
2022-11-09T10:05:28.207Z,94652.44
2022-11-09T10:08:16.501Z,94648.75
2022-11-09T10:11:03.360Z,94647.28
2022-11-09T10:13:42.331Z,94646.53
2022-11-09T10:16:08.966Z,94647.88
2022-11-09T10:19:08.387Z,94653.50
2022-11-09T10:21:44.061Z,94652.91
2022-11-09T10:25:12.748Z,94639.59
2022-11-09T10:27:36.513Z,94647.66
2022-11-09T10:30:13.581Z,94641.69
2022-11-09T10:32:42.121Z,94645.75
2022-11-09T10:35:31.311Z,94631.81
2022-11-09T10:37:58.003Z,94638.28
2022-11-09T10:40:27.393Z,94629.44
2022-11-09T10:42:59.518Z,94629.13
2022-11-09T10:45:35.504Z,94627.88
2022-11-09T10:48:03.130Z,94623.03
2022-11-09T10:50:41.912Z,94624.47
2022-11-09T10:53:13.124Z,94623.94
2022-11-09T10:56:21.158Z,94620.09
2022-11-09T10:58:51.418Z,94615.25
2022-11-09T11:01:20.844Z,94615.66
2022-11-09T11:03:51.734Z,94605.38
2022-11-09T11:06:21.273Z,94611.03
2022-11-09T11:09:10.965Z,94603.97
2022-11-09T11:11:39.614Z,94608.81
2022-11-09T11:14:18.411Z,94609.25
2022-11-09T11:16:47.319Z,94602.50
2022-11-09T11:19:39.101Z,94598.59
2022-11-09T11:22:11.541Z,94599.72
2022-11-09T11:24:58.805Z,94590.53
2022-11-09T11:27:47.937Z,94587.13
2022-11-09T11:30:28.623Z,94588.25
2022-11-09T11:32:56.515Z,94589.91
2022-11-09T11:35:36.522Z,94586.47
2022-11-09T11:38:08.648Z,94584.69
2022-11-09T11:40:45.996Z,94583.97
2022-11-09T11:43:36.347Z,94586.31
2022-11-09T11:46:11.194Z,94587.66
2022-11-09T11:48:46.791Z,94585.66
2022-11-09T11:51:41.306Z,94581.75
2022-11-09T11:54:37.239Z,94580.81
2022-11-09T11:57:31.769Z,94575.66
2022-11-09T12:00:15.143Z,94570.81
2022-11-09T12:02:56.263Z,94564.00
2022-11-09T12:05:53.611Z,94564.63
2022-11-09T12:08:37.772Z,94573.06
2022-11-09T12:11:11.747Z,94572.63
2022-11-09T12:13:39.823Z,94573.97
2022-11-09T12:16:14.192Z,94568.41
2022-11-09T12:18:46.496Z,94557.94
2022-11-09T12:21:29.067Z,94565.59
2022-11-09T12:24:09.317Z,94567.00
2022-11-09T12:27:30.924Z,94565.69
2022-11-09T12:30:06.554Z,94565.41
2022-11-09T12:32:56.212Z,94557.56
2022-11-09T12:35:35.055Z,94560.31
2022-11-09T12:38:23.571Z,94565.41
2022-11-09T12:41:09.407Z,94558.38
2022-11-09T12:43:52.187Z,94554.84
2022-11-09T12:46:22.673Z,94551.09
2022-11-09T12:48:50.180Z,94546.72
2022-11-09T12:51:17.513Z,94537.41
2022-11-09T12:53:44.201Z,94536.56
2022-11-09T12:56:14.196Z,94533.00
2022-11-09T12:58:40.896Z,94536.47
2022-11-09T13:01:12.193Z,94534.75
2022-11-09T13:03:52.203Z,94532.50
2022-11-09T13:06:25.008Z,94529.56
2022-11-09T13:09:04.368Z,94531.31
2022-11-09T13:11:40.921Z,94530.88
2022-11-09T13:14:22.801Z,94535.53
2022-11-09T13:16:50.835Z,94528.84
2022-11-09T13:19:35.678Z,94524.50
2022-11-09T13:22:23.353Z,94529.25
2022-11-09T13:24:51.711Z,94533.50
2022-11-09T13:27:33.563Z,94526.00
2022-11-09T13:30:01.489Z,94529.66
2022-11-09T13:32:29.738Z,94533.50
2022-11-09T13:34:58.593Z,94530.56
2022-11-09T13:37:47.221Z,94525.91
2022-11-09T13:40:32.179Z,94526.81
2022-11-09T13:43:16.505Z,94528.63
2022-11-09T13:45:57.139Z,94520.41
2022-11-09T13:48:36.634Z,94510.75
2022-11-09T13:51:07.398Z,94513.41
2022-11-09T13:53:36.855Z,94519.59
2022-11-09T13:56:37.227Z,94523.84
2022-11-09T13:59:26.166Z,94529.63
2022-11-09T14:01:58.365Z,94525.59
2022-11-09T14:04:30.708Z,94527.31
2022-11-09T14:07:19.165Z,94532.47
2022-11-09T14:10:19.367Z,94531.25
2022-11-09T14:13:03.476Z,94525.44
2022-11-09T14:16:02.506Z,94524.94
2022-11-09T14:18:48.050Z,94526.69
2022-11-09T14:21:39.392Z,94539.59
2022-11-09T14:24:16.683Z,94540.28
2022-11-09T14:27:08.790Z,94535.22
2022-11-09T14:29:37.752Z,94538.56
2022-11-09T14:32:24.278Z,94535.41
2022-11-09T14:34:50.997Z,94541.41
2022-11-09T14:37:18.821Z,94548.09
2022-11-09T14:39:54.242Z,94551.47
2022-11-09T14:42:23.086Z,94557.47
2022-11-09T14:44:50.262Z,94559.41
2022-11-09T14:47:20.230Z,94566.81
2022-11-09T14:49:47.799Z,94570.84
2022-11-09T14:52:27.067Z,94573.50
2022-11-09T14:54:54.652Z,94575.44
2022-11-09T14:57:23.139Z,94572.78
2022-11-09T14:59:50.966Z,94575.44
2022-11-09T15:02:20.009Z,94578.59
2022-11-09T15:04:58.088Z,94579.81
2022-11-09T15:07:28.329Z,94586.53
2022-11-09T15:09:58.639Z,94586.31
2022-11-09T15:12:25.820Z,94582.97
2022-11-09T15:14:54.385Z,94581.03
2022-11-09T15:17:31.792Z,94587.53
2022-11-09T15:20:01.848Z,94587.34
2022-11-09T15:22:37.460Z,94586.13
2022-11-09T15:25:23.103Z,94589.28
2022-11-09T15:28:01.879Z,94591.69
2022-11-09T15:30:45.461Z,94594.84
2022-11-09T15:33:21.367Z,94598.50
2022-11-09T15:35:59.959Z,94602.38
2022-11-09T15:38:31.545Z,94606.22
2022-11-09T15:40:58.311Z,94608.16
2022-11-09T15:43:25.438Z,94599.75
2022-11-09T15:45:52.273Z,94604.75
2022-11-09T15:48:19.317Z,94607.38
2022-11-09T15:50:46.162Z,94610.03
2022-11-09T15:53:13.667Z,94614.56
2022-11-09T15:55:40.597Z,94618.03
2022-11-09T15:58:07.252Z,94619.75
2022-11-09T16:00:34.026Z,94617.81
2022-11-09T16:03:00.957Z,94622.41
2022-11-09T16:05:28.258Z,94622.06
2022-11-09T16:07:55.775Z,94628.50
2022-11-09T16:10:23.526Z,94625.41
2022-11-09T16:12:53.593Z,94633.22
2022-11-09T16:15:20.551Z,94635.34
2022-11-09T16:17:49.769Z,94634.22
2022-11-09T16:20:17.713Z,94644.28
2022-11-09T16:22:44.497Z,94645.34
2022-11-09T16:25:11.621Z,94642.81
2022-11-09T16:27:54.258Z,94647.75
2022-11-09T16:30:21.107Z,94654.22
2022-11-09T16:32:47.708Z,94654.06
2022-11-09T16:35:29.660Z,94661.63
2022-11-09T16:37:58.126Z,94663.91
2022-11-09T16:40:29.134Z,94668.19
2022-11-09T16:42:56.020Z,94681.38
2022-11-09T16:45:25.906Z,94679.22
2022-11-09T16:47:57.045Z,94686.44
2022-11-09T16:50:24.353Z,94688.38
2022-11-09T16:52:51.092Z,94691.13
2022-11-09T16:55:17.825Z,94705.34
2022-11-09T16:57:46.355Z,94706.63
2022-11-09T17:00:14.226Z,94704.28
2022-11-09T17:02:40.841Z,94711.69
2022-11-09T17:05:08.087Z,94715.53
2022-11-09T17:07:42.053Z,94721.50
2022-11-09T17:10:09.687Z,94717.72
2022-11-09T17:12:36.344Z,94721.59
2022-11-09T17:15:03.081Z,94733.34
2022-11-09T17:17:29.738Z,94729.78
2022-11-09T17:19:56.340Z,94732.72
2022-11-09T17:22:23.062Z,94738.00
2022-11-09T17:24:49.747Z,94741.84
2022-11-09T17:27:16.434Z,94748.81
2022-11-09T17:29:43.097Z,94749.09
2022-11-09T17:32:10.146Z,94755.38
2022-11-09T17:34:37.028Z,94757.81
2022-11-09T17:37:05.432Z,94754.94
2022-11-09T17:39:33.333Z,94756.16
2022-11-09T17:42:00.014Z,94755.72
2022-11-09T17:44:26.899Z,94759.34
2022-11-09T17:46:53.642Z,94768.25
2022-11-09T17:49:20.269Z,94758.94
2022-11-09T17:51:47.023Z,94766.59
2022-11-09T17:54:15.142Z,94769.53
2022-11-09T17:56:42.414Z,94772.63
2022-11-09T17:59:09.234Z,94774.38
2022-11-09T18:01:41.071Z,94778.69
2022-11-09T18:04:10.287Z,94780.91
2022-11-09T18:06:37.407Z,94774.22
2022-11-09T18:09:39.141Z,94787.38
2022-11-09T18:11:51.076Z,94785.03
2022-11-09T18:14:17.881Z,94784.09
2022-11-09T18:16:45.322Z,94780.03
2022-11-09T18:19:12.421Z,94787.03
2022-11-09T18:21:39.210Z,94792.28
2022-11-09T18:24:06.256Z,94786.28
2022-11-09T18:26:33.038Z,94793.25
2022-11-09T18:28:59.978Z,94803.06
2022-11-09T18:31:26.715Z,94792.53
2022-11-09T18:33:53.606Z,94793.00
2022-11-09T18:36:21.801Z,94802.63
2022-11-09T18:38:51.230Z,94799.53
2022-11-09T18:41:22.014Z,94797.63
2022-11-09T18:43:50.296Z,94802.88
2022-11-09T18:46:19.850Z,94809.41
2022-11-09T18:48:53.396Z,94811.31
2022-11-09T18:51:20.546Z,94813.06
2022-11-09T18:53:48.561Z,94817.13
2022-11-09T18:56:24.082Z,94813.28
2022-11-09T18:58:53.112Z,94819.31
2022-11-09T19:01:21.080Z,94813.53
2022-11-09T19:03:47.793Z,94820.00
2022-11-09T19:06:17.166Z,94824.06
2022-11-09T19:09:02.884Z,94832.72
2022-11-09T19:11:30.276Z,94824.84
2022-11-09T19:13:57.396Z,94830.88
2022-11-09T19:16:25.314Z,94830.63
2022-11-09T19:18:52.204Z,94840.88
2022-11-09T19:21:24.869Z,94846.16
2022-11-09T19:23:52.303Z,94843.91
2022-11-09T19:26:19.250Z,94844.69
2022-11-09T19:28:45.972Z,94846.63
2022-11-09T19:31:14.753Z,94851.81
2022-11-09T19:33:41.459Z,94841.63
2022-11-09T19:36:29.316Z,94850.72
2022-11-09T19:38:56.845Z,94846.81
2022-11-09T19:41:24.893Z,94844.66
2022-11-09T19:43:54.512Z,94834.16
2022-11-09T19:46:22.152Z,94852.34
2022-11-09T19:48:49.091Z,94851.63
2022-11-09T19:51:17.160Z,94848.94
2022-11-09T19:53:53.798Z,94847.28
2022-11-09T19:56:22.176Z,94849.47
2022-11-09T19:58:55.312Z,94847.53
2022-11-09T20:01:23.050Z,94845.59
2022-11-09T20:03:55.115Z,94851.13
2022-11-09T20:06:23.485Z,94850.88
2022-11-09T20:08:52.267Z,94859.47
2022-11-09T20:11:38.956Z,94857.34
2022-11-09T20:14:07.194Z,94862.63
2022-11-09T20:16:34.509Z,94866.69
2022-11-09T20:19:03.268Z,94861.91
2022-11-09T20:21:29.901Z,94871.22
2022-11-09T20:23:56.579Z,94871.72
2022-11-09T20:26:23.397Z,94877.97
2022-11-09T20:28:53.421Z,94875.41
2022-11-09T20:31:21.180Z,94884.47
2022-11-09T20:33:48.639Z,94880.63
2022-11-09T20:36:15.467Z,94880.19
2022-11-09T20:38:42.467Z,94892.59
2022-11-09T20:41:11.511Z,94887.13
2022-11-09T20:43:38.708Z,94891.44
2022-11-09T20:46:08.195Z,94896.09
2022-11-09T20:51:23.355Z,94898.72
2022-11-09T20:53:51.065Z,94897.97
2022-11-09T20:56:19.212Z,94913.94
2022-11-09T20:58:46.425Z,94913.72
2022-11-09T21:01:26.959Z,94915.66
2022-11-09T21:03:54.259Z,94921.63
2022-11-09T21:06:21.936Z,94923.03
2022-11-09T21:08:54.162Z,94921.59
2022-11-09T21:11:23.778Z,94923.53
2022-11-09T21:13:52.009Z,94936.75
2022-11-09T21:16:23.358Z,94932.94
2022-11-09T21:18:50.069Z,94939.63
2022-11-09T21:21:20.025Z,94943.16
2022-11-09T21:24:05.629Z,94945.34
2022-11-09T21:26:50.940Z,94950.22
2022-11-09T21:29:41.574Z,94953.28
2022-11-09T21:32:08.949Z,94954.91
2022-11-09T21:34:37.192Z,94963.06
2022-11-09T21:37:04.893Z,94961.16
2022-11-09T21:39:31.927Z,94964.97
2022-11-09T21:41:58.987Z,94963.75
2022-11-09T21:44:31.856Z,94975.50
2022-11-09T21:46:59.160Z,94968.59
2022-11-09T21:49:25.918Z,94974.78
2022-11-09T21:51:53.533Z,94974.78
2022-11-09T21:54:20.954Z,94975.50
2022-11-09T21:56:51.325Z,94976.53
2022-11-09T21:59:18.280Z,94977.47
2022-11-09T22:01:45.099Z,94974.56
2022-11-09T22:04:12.084Z,94978.88
2022-11-09T22:06:40.585Z,94979.34
2022-11-09T22:09:09.130Z,94984.13
2022-11-09T22:11:54.350Z,94987.94
2022-11-09T22:14:39.597Z,94986.53
2022-11-09T22:17:10.120Z,94990.13
2022-11-09T22:19:57.021Z,94984.84
2022-11-09T22:22:24.754Z,94998.94
2022-11-09T22:24:51.400Z,94990.38
2022-11-09T22:27:18.070Z,95004.47
2022-11-09T22:29:44.850Z,95002.81
2022-11-09T22:32:11.517Z,95005.94
2022-11-09T22:34:38.229Z,95005.91
2022-11-09T22:37:05.089Z,95009.00
2022-11-09T22:39:31.995Z,95010.47
2022-11-09T22:41:58.626Z,95013.81
2022-11-09T22:44:25.402Z,95007.34
2022-11-09T22:46:52.013Z,95014.75
2022-11-09T22:49:19.298Z,95014.75
2022-11-09T22:51:46.022Z,95022.69
2022-11-09T22:54:12.653Z,95016.22
2022-11-09T22:56:39.281Z,95019.78
2022-11-09T22:59:06.218Z,95014.03
2022-11-09T23:01:33.000Z,95022.91
2022-11-09T23:03:59.812Z,95015.97
2022-11-09T23:06:26.974Z,95011.19
2022-11-09T23:08:53.637Z,95015.72
2022-11-09T23:11:22.382Z,95024.34
2022-11-09T23:13:51.352Z,95020.28
2022-11-09T23:16:18.159Z,95025.78
2022-11-09T23:18:54.544Z,95020.50
2022-11-09T23:21:27.860Z,95014.75
2022-11-09T23:23:57.334Z,95024.09
2022-11-09T23:26:24.935Z,95020.75
2022-11-09T23:28:51.786Z,95020.28
2022-11-09T23:31:19.782Z,95024.34
2022-11-09T23:33:49.329Z,95026.03
2022-11-09T23:36:15.961Z,95027.44
2022-11-09T23:38:42.658Z,95028.88
2022-11-09T23:41:11.332Z,95029.38
2022-11-09T23:43:38.232Z,95021.47
2022-11-09T23:46:10.698Z,95020.28
2022-11-09T23:48:38.024Z,95028.16
2022-11-09T23:51:05.373Z,95027.44
2022-11-09T23:53:32.996Z,95031.50
2022-11-09T23:56:01.253Z,95026.97
2022-11-09T23:58:28.394Z,95035.59
